Time;durP1;ratioP1;P1;durP2;ratioP2;P2;SDS_P1;SDS_P2;PMS_P1;PMS_P2;Temp;Humidity;BMP_temperature;BMP_pressure;BME280_temperature;BME280_humidity;BME280_pressure;Samples;Min_cycle;Max_cycle;Signal;HPM_P1;HPM_P2
2021/06/08 00:01:52;;;;;;;;;;;;;;;;;;;;;
2021/06/08 00:08:35;;;;;;;5.43;2.72;;;;;;;14.87;80.01;92918.38;4997765;28;19922;-90
2021/06/08 00:11:29;;;;;;;5.00;3.25;;;;;;;15.09;80.22;92948.44;5010962;28;20128;-90
2021/06/08 00:14:48;;;;;;;5.85;3.00;;;;;;;14.97;79.99;92933.16;4997890;28;20383;-89
2021/06/08 00:18:00;;;;;;;9.15;3.20;;;;;;;15.02;80.28;92948.84;4985179;28;20045;-90
2021/06/08 00:21:23;;;;;;;5.30;3.13;;;;;;;15.23;80.28;92972.06;5017544;28;20042;-90
2021/06/08 00:27:22;;;;;;;5.72;3.20;;;;;;;14.99;81.26;92947.59;4975018;28;20133;-89
2021/06/08 00:30:59;;;;;;;6.00;3.20;;;;;;;14.81;81.12;92926.69;4965662;28;20034;-89
2021/06/08 00:34:17;;;;;;;5.93;3.10;;;;;;;14.77;81.38;92924.69;4992818;28;20501;-89
2021/06/08 00:37:15;;;;;;;6.82;3.30;;;;;;;14.71;81.72;92912.69;4992776;28;20034;-89
2021/06/08 00:40:08;;;;;;;;;;;;;;;;;;;;;
2021/06/08 00:44:05;;;;;;;6.07;3.90;;;;;;;14.64;82.19;92920.25;4993842;28;20054;-89
2021/06/08 00:46:50;;;;;;;;;;;;;;;;;;;;;
2021/06/08 00:49:44;;;;;;;6.30;3.40;;;;;;;14.61;82.03;92915.56;4998714;28;20042;-89
2021/06/08 00:52:51;;;;;;;;;;;;;;;;;;;;;
2021/06/08 00:55:59;;;;;;;5.00;3.40;;;;;;;14.88;81.90;92942.88;5013499;28;20379;-91
2021/06/08 00:58:55;;;;;;;7.35;3.22;;;;;;;15.00;82.31;92964.19;4995884;28;20076;-90
2021/06/08 01:02:03;;;;;;;;;;;;;;;;;;;;;
2021/06/08 01:05:03;;;;;;;4.45;2.90;;;;;;;14.66;81.38;92904.94;4992098;28;20042;-89
2021/06/08 01:11:43;;;;;;;;;;;;;;;;;;;;;
2021/06/08 01:18:24;;;;;;;10.13;3.42;;;;;;;14.98;81.65;92953.94;4993226;28;20050;-89
2021/06/08 01:21:38;;;;;;;;;;;;;;;;;;;;;
2021/06/08 01:24:37;;;;;;;6.05;2.83;;;;;;;14.85;81.50;92933.72;4986087;28;20049;-90
2021/06/08 01:27:47;;;;;;;5.00;3.10;;;;;;;14.78;81.34;92928.09;4979100;28;20041;-90
2021/06/08 01:30:57;;;;;;;5.47;3.15;;;;;;;14.62;81.49;92903.19;4996621;28;20143;-89
2021/06/08 01:37:20;;;;;;;7.85;3.17;;;;;;;14.62;81.76;92903.97;4990913;28;20047;-90
2021/06/08 01:40:52;;;;;;;;;;;;;;;;;;;;;
2021/06/08 01:43:55;;;;;;;;;;;;;;;;;;;;;
2021/06/08 01:47:20;;;;;;;4.60;2.83;;;;;;;14.80;82.19;92930.44;4997911;28;20133;-90
2021/06/08 02:01:17;;;;;;;8.07;3.58;;;;;;;14.73;82.06;92925.59;4990807;28;20057;-89
2021/06/08 02:05:03;;;;;;;6.88;3.60;;;;;;;14.56;82.54;92894.63;4987161;28;20515;-89
2021/06/08 02:08:39;;;;;;;6.95;3.88;;;;;;;14.65;83.31;92908.63;4990578;28;20039;-90
2021/06/08 02:11:48;;;;;;;8.65;4.05;;;;;;;14.92;84.36;92939.31;4989485;28;20038;-89
2021/06/08 02:14:51;;;;;;;7.03;4.20;;;;;;;14.73;85.33;92918.44;4976369;28;20558;-89
2021/06/08 02:18:40;;;;;;;7.65;4.20;;;;;;;14.56;84.09;92907.78;4977328;28;20403;-90
2021/06/08 02:25:13;;;;;;;;;;;;;;;;;;;;;
2021/06/08 02:28:15;;;;;;;6.72;4.22;;;;;;;14.56;85.00;92913.81;4992534;28;20045;-91
2021/06/08 02:31:29;;;;;;;8.18;4.47;;;;;;;14.44;85.74;92902.25;4993281;28;20040;-91
2021/06/08 02:34:51;;;;;;;7.43;4.38;;;;;;;14.52;85.79;92914.69;4989321;28;20387;-90
2021/06/08 02:44:34;;;;;;;6.60;4.65;;;;;;;14.61;86.38;92955.09;4982724;28;20129;-90
2021/06/08 02:47:51;;;;;;;;;;;;;;;;;;;;;
2021/06/08 02:50:40;;;;;;;8.60;5.15;;;;;;;14.38;86.62;92930.56;4983990;28;20038;-89
2021/06/08 02:53:24;;;;;;;6.25;4.07;;;;;;;14.35;86.06;92924.03;4975801;28;20065;-90
2021/06/08 02:56:33;;;;;;;6.88;4.00;;;;;;;14.65;85.57;92974.50;5005886;28;20347;-89
2021/06/08 03:10:50;;;;;;;8.23;4.00;;;;;;;14.25;85.58;92932.19;5000898;28;20180;-89
2021/06/08 03:14:09;;;;;;;;;;;;;;;;;;;;;
2021/06/08 03:17:34;;;;;;;;;;;;;;;;;;;;;
2021/06/08 03:20:46;;;;;;;7.10;4.30;;;;;;;14.21;86.08;92927.78;5009132;28;20045;-90
2021/06/08 03:37:46;;;;;;;5.03;2.13;;;;;;;14.34;82.70;92950.66;4915403;29;20047;-90
2021/06/08 03:40:45;;;;;;;3.85;2.15;;;;;;;14.23;82.44;92936.97;4930786;28;20091;-90
2021/06/08 03:47:29;;;;;;;;;;;;;;;;;;;;;
2021/06/08 03:50:35;;;;;;;5.63;2.88;;;;;;;14.17;84.83;92948.69;5007828;28;20052;-90
2021/06/08 03:54:23;;;;;;;6.47;2.70;;;;;;;14.51;86.74;92997.44;5003067;28;20065;-91
2021/06/08 04:00:40;;;;;;;;;;;;;;;14.40;85.37;92999.53;4974053;28;20042;-90
2021/06/08 04:07:24;;;;;;;;;;;;;;;;;;;;;
2021/06/08 04:11:19;;;;;;;6.95;2.28;;;;;;;13.86;84.18;92949.31;4980639;28;20048;-90
2021/06/08 04:14:39;;;;;;;6.40;2.80;;;;;;;13.78;84.08;92960.53;4992580;28;20039;-90
2021/06/08 04:17:56;;;;;;;4.43;2.70;;;;;;;13.66;83.98;92953.13;4991334;28;20038;-89
2021/06/08 04:21:19;;;;;;;;;;;;;;;;;;;;;
2021/06/08 04:24:36;;;;;;;6.53;2.92;;;;;;;13.53;85.00;92954.72;4979684;28;20066;-92
2021/06/08 04:27:39;;;;;;;6.43;3.30;;;;;;;13.47;85.37;92944.56;4993526;28;20503;-90
2021/06/08 04:30:38;;;;;;;;;;;;;;;;;;;;;
2021/06/08 04:37:15;;;;;;;7.25;2.60;;;;;;;13.57;85.86;92962.78;4993674;28;20038;-91
2021/06/08 04:40:21;;;;;;;9.73;2.60;;;;;;;13.82;85.39;92998.34;5005986;28;20050;-91
2021/06/08 04:43:23;;;;;;;;;;;;;;;13.83;85.85;92999.13;5008917;28;20044;-92
2021/06/08 04:50:30;;;;;;;;;;;;;;;;;;;;;
2021/06/08 04:57:38;;;;;;;4.70;2.40;;;;;;;13.59;86.66;92942.22;4972142;28;20050;-90
2021/06/08 05:00:15;;;;;;;6.53;2.45;;;;;;;13.63;86.69;92939.78;4992344;28;20050;-90
2021/06/08 05:10:41;;;;;;;4.97;2.60;;;;;;;13.71;86.07;92939.09;4992555;28;20031;-88
2021/06/08 05:13:32;;;;;;;7.45;2.85;;;;;;;14.03;86.18;92984.78;5003952;28;20108;-88
2021/06/08 05:16:33;;;;;;;4.75;2.80;;;;;;;13.92;86.80;92973.69;5010841;28;20042;-88
2021/06/08 05:19:40;;;;;;;4.55;2.67;;;;;;;14.08;86.14;92995.22;5010387;28;20389;-87
2021/06/08 05:22:55;;;;;;;6.40;2.58;;;;;;;13.81;85.77;92954.69;5006720;28;20034;-88
2021/06/08 05:29:10;;;;;;;5.78;3.00;;;;;;;13.77;84.47;92945.81;5004263;28;20046;-88
2021/06/08 05:32:17;;;;;;;8.40;3.13;;;;;;;13.77;84.40;92948.44;5008200;28;20049;-87
2021/06/08 05:35:30;;;;;;;;;;;;;;;;;;;;;
2021/06/08 05:39:06;;;;;;;;;;;;;;;;;;;;;
2021/06/08 05:42:04;;;;;;;4.90;3.20;;;;;;;14.22;84.05;92995.94;4991320;28;20038;-89
2021/06/08 05:45:28;;;;;;;;;;;;;;;;;;;;;
2021/06/08 05:48:39;;;;;;;7.53;3.50;;;;;;;14.30;84.36;92992.63;4991712;28;20065;-89
2021/06/08 05:51:31;;;;;;;8.00;3.55;;;;;;;14.00;84.14;92946.66;4970583;28;20046;-88
2021/06/08 05:54:31;;;;;;;5.65;3.50;;;;;;;14.10;nan;92949.09;4995410;28;20476;-88
2021/06/08 05:57:37;;;;;;;7.97;3.67;;;;;;;14.28;83.96;92962.41;4998126;28;20049;-89
2021/06/08 06:00:47;;;;;;;6.95;3.50;;;;;;;14.37;84.08;92963.25;4994775;28;20453;-90
2021/06/08 06:03:46;;;;;;;5.60;3.47;;;;;;;14.34;83.82;92948.84;5002961;28;20039;-91
2021/06/08 06:07:06;;;;;;;;;;;;;;;;;;;;;
2021/06/08 06:10:51;;;;;;;;;;;;;;;;;;;;;
2021/06/08 06:13:53;;;;;;;;;;;;;;;;;;;;;
2021/06/08 06:17:11;;;;;;;6.63;3.30;;;;;;;15.20;82.71;92979.50;4991837;28;20034;-89
2021/06/08 06:20:20;;;;;;;;;;;;;;;;;;;;;
2021/06/08 06:23:32;;;;;;;8.07;3.10;;;;;;;15.57;80.36;92961.66;4991041;28;20299;-89
2021/06/08 06:26:36;;;;;;;;;;;;;;;;;;;;;
2021/06/08 06:29:40;;;;;;;5.05;2.83;;;;;;;16.03;79.96;92955.16;4989542;28;20060;-90
2021/06/08 06:32:41;;;;;;;;;;;;;;;;;;;;;
2021/06/08 06:36:01;;;;;;;;;;;;;;;;;;;;;
2021/06/08 06:39:08;;;;;;;5.70;2.78;;;;;;;16.95;78.35;92978.03;4988950;28;20046;-88
2021/06/08 06:42:17;;;;;;;;;;;;;;;;;;;;;
2021/06/08 06:45:17;;;;;;;6.90;3.38;;;;;;;17.24;75.09;92969.44;4989513;28;20235;-89
2021/06/08 06:48:16;;;;;;;4.07;2.67;;;;;;;17.48;74.82;92982.13;4998369;28;20095;-89
2021/06/08 06:54:50;;;;;;;4.95;2.40;;;;;;;17.90;73.07;92973.59;4987332;28;20057;-88
2021/06/08 06:58:01;;;;;;;4.72;2.33;;;;;;;18.20;71.54;92973.59;4977167;28;20411;-88
2021/06/08 07:01:02;;;;;;;;;;;;;;;;;;;;;
2021/06/08 07:03:45;;;;;;;7.32;2.60;;;;;;;18.49;68.89;92980.72;5009287;28;20513;-88
2021/06/08 07:06:50;;;;;;;4.13;2.30;;;;;;;18.99;67.94;93026.84;4978228;28;20582;-88
2021/06/08 07:09:57;;;;;;;;;;;;;;;;;;;;;
2021/06/08 07:13:17;;;;;;;;;;;;;;;;;;;;;
2021/06/08 07:19:34;;;;;;;7.87;2.43;;;;;;;19.61;66.49;92966.75;4990474;28;20503;-88
2021/06/08 07:23:19;;;;;;;;;;;;;;;;;;;;;
2021/06/08 07:26:36;;;;;;;8.18;2.42;;;;;;;20.10;65.01;92994.13;4950003;28;20407;-90
2021/06/08 07:30:06;;;;;;;3.45;2.15;;;;;;;20.31;63.89;92987.91;4928238;29;20122;-89
2021/06/08 07:33:43;;;;;;;;;;;;;;;;;;;;;
2021/06/08 07:37:03;;;;;;;8.52;2.65;;;;;;;20.62;61.71;92970.63;4935101;29;20054;-88
2021/06/08 07:40:43;;;;;;;5.75;3.03;;;;;;;20.59;57.26;92983.47;4961154;28;20060;-90
2021/06/08 07:50:31;;;;;;;6.35;3.20;;;;;;;18.78;71.11;92977.25;4958324;28;20055;-88
2021/06/08 07:53:32;;;;;;;8.02;4.60;;;;;;;18.95;74.91;93021.41;4992395;28;20050;-88
2021/06/08 07:59:23;;;;;;;10.27;5.15;;;;;;;18.28;77.06;93001.88;4990705;28;20053;-88
2021/06/08 08:02:31;;;;;;;7.25;4.10;;;;;;;18.58;74.86;92981.44;5013493;28;20053;-88
2021/06/08 08:05:46;;;;;;;11.40;4.63;;;;;;;18.46;75.79;92998.06;5011374;28;20459;-88
2021/06/08 08:08:47;;;;;;;7.90;4.18;;;;;;;18.29;75.97;93003.47;4985497;28;20395;-89
2021/06/08 08:15:57;;;;;;;;;;;;;;;;;;;;;
2021/06/08 08:22:57;;;;;;;11.63;4.10;;;;;;;18.86;76.20;93012.75;5003376;28;20084;-88
2021/06/08 08:29:45;;;;;;;;;;;;;;;;;;;;;
2021/06/08 08:36:36;;;;;;;6.15;3.20;;;;;;;18.80;73.73;93020.16;5012205;28;20051;-89
2021/06/08 08:39:21;;;;;;;5.85;3.95;;;;;;;18.36;73.98;93027.56;4976800;28;20038;-88
2021/06/08 08:42:30;;;;;;;9.25;3.90;;;;;;;18.12;75.21;92991.06;4991444;28;20492;-90
2021/06/08 08:45:39;;;;;;;5.72;3.35;;;;;;;18.25;73.73;93010.50;4983026;28;20050;-89
2021/06/08 08:48:38;;;;;;;9.65;3.40;;;;;;;18.01;74.96;93001.28;4976736;28;20046;-90
2021/06/08 08:54:35;;;;;;;17.15;4.40;;;;;;;18.06;73.81;92995.03;5007118;28;20261;-88
2021/06/08 08:57:43;;;;;;;;;;;;;;;;;;;;;
2021/06/08 09:07:47;;;;;;;10.23;2.85;;;;;;;18.78;70.27;93001.13;4997319;28;20526;-89
2021/06/08 09:10:52;;;;;;;20.50;4.18;;;;;;;18.51;70.68;92989.91;5004868;28;20064;-89
2021/06/08 09:14:22;;;;;;;;;;;;;;;;;;;;;
2021/06/08 09:17:16;;;;;;;;;;;;;;;;;;;;;
2021/06/08 09:20:56;;;;;;;;;;;;;;;;;;;;;
2021/06/08 09:24:07;;;;;;;;;;;;;;;;;;;;;
2021/06/08 09:27:19;;;;;;;;;;;;;;;;;;;;;
2021/06/08 09:31:12;;;;;;;8.77;2.92;;;;;;;19.30;68.01;93003.31;4996101;28;20459;-88
2021/06/08 09:34:05;;;;;;;;;;;;;;;;;;;;;
2021/06/08 09:37:16;;;;;;;5.63;2.50;;;;;;;18.87;67.98;92980.59;5004869;28;20060;-89
2021/06/08 09:44:34;;;;;;;9.65;2.90;;;;;;;18.66;68.85;92988.53;4998484;28;20056;-89
2021/06/08 09:51:13;;;;;;;5.32;2.88;;;;;;;19.50;66.99;93043.41;4986820;28;20635;-88
2021/06/08 09:54:21;;;;;;;6.03;2.95;;;;;;;19.38;67.97;93033.50;4938241;28;20053;-90
2021/06/08 09:57:43;;;;;;;;;;;;;;;;;;;;;
2021/06/08 10:00:55;;;;;;;;;;;;;;;;;;;;;
2021/06/08 10:08:00;;;;;;;4.47;2.60;;;;;;;19.89;66.59;93034.09;5005735;28;20402;-89
2021/06/08 10:14:49;;;;;;;6.00;2.60;;;;;;;19.74;65.57;93008.94;4997393;28;20072;-89
2021/06/08 10:17:43;;;;;;;6.22;2.65;;;;;;;19.48;66.96;92985.31;4976774;28;20385;-89
2021/06/08 10:21:11;;;;;;;;;;;;;;;;;;;;;
2021/06/08 10:24:16;;;;;;;5.97;2.20;;;;;;;20.29;60.91;92971.56;4990599;28;20038;-89
2021/06/08 10:27:46;;;;;;;4.32;2.30;;;;;;;21.05;57.16;92999.19;4990476;28;20038;-89
2021/06/08 10:30:46;;;;;;;;;;;;;;;;;;;;;
2021/06/08 10:33:55;;;;;;;3.63;2.25;;;;;;;21.91;57.29;92973.97;5010279;28;20582;-90
2021/06/08 10:37:23;;;;;;;;;;;;;;;;;;;;;
2021/06/08 10:40:48;;;;;;;7.07;2.30;;;;;;;21.64;54.79;92981.75;5010421;28;20072;-90
2021/06/08 10:43:58;;;;;;;6.65;2.42;;;;;;;21.71;53.88;92973.16;5008076;28;20038;-90
2021/06/08 10:51:01;;;;;;;5.38;2.53;;;;;;;21.45;55.82;93005.59;4994470;28;20522;-89
2021/06/08 10:54:24;;;;;;;6.63;2.20;;;;;;;22.41;53.30;92965.25;5010252;28;20050;-90
2021/06/08 10:57:48;;;;;;;;;;;;;;;;;;;;;
2021/06/08 11:04:11;;;;;;;5.97;2.30;;;;;;;23.28;52.33;92984.56;4990071;28;20058;-89
2021/06/08 11:07:46;;;;;;;;;;;;;;;;;;;;;
2021/06/08 11:11:07;;;;;;;3.55;2.30;;;;;;;23.13;51.50;93009.47;4987268;28;20373;-91
2021/06/08 11:18:30;;;;;;;;;;;;;;;;;;;;;
2021/06/08 11:21:44;;;;;;;3.28;2.00;;;;;;;22.78;46.96;93004.13;4994617;28;20038;-91
2021/06/08 11:25:00;;;;;;;5.93;2.00;;;;;;;22.39;49.47;92978.16;4974594;28;20049;-88
2021/06/08 11:28:18;;;;;;;3.60;2.13;;;;;;;22.43;51.48;92962.25;4978645;28;20553;-90
2021/06/08 11:34:59;;;;;;;;;;;;;;;;;;;;;
2021/06/08 11:38:12;;;;;;;;;;;;;;;;;;;;;
2021/06/08 11:41:13;;;;;;;;;;;;;;;;;;;;;
2021/06/08 11:44:19;;;;;;;5.00;2.40;;;;;;;24.25;46.49;92970.16;4994990;28;20347;-90
2021/06/08 11:51:16;;;;;;;4.60;2.47;;;;;;;21.86;51.24;92955.59;4967825;28;20045;-89
2021/06/08 11:54:17;;;;;;;5.15;2.40;;;;;;;21.55;53.67;92952.59;4974667;28;20192;-89
2021/06/08 11:57:45;;;;;;;5.00;2.58;;;;;;;21.69;53.14;92989.47;4997898;28;20029;-90
2021/06/08 12:07:52;;;;;;;;;;;;;;;;;;;;;
2021/06/08 12:10:57;;;;;;;5.80;2.65;;;;;;;21.66;53.13;92973.38;5003185;28;20040;-90
2021/06/08 12:14:38;;;;;;;4.82;2.70;;;;;;;21.45;54.70;92984.28;4991536;28;20050;-89
2021/06/08 12:21:38;;;;;;;;;;;;;;;;;;;;;
2021/06/08 12:25:22;;;;;;;;;;;;;;;;;;;;;
2021/06/08 12:28:35;;;;;;;5.93;2.28;;;;;;;20.36;53.83;92975.19;5000063;28;20472;-89
2021/06/08 12:32:15;;;;;;;;;;;;;;;;;;;;;
2021/06/08 12:35:22;;;;;;;5.22;2.33;;;;;;;19.39;55.79;92963.41;5010774;28;20058;-90
2021/06/08 12:38:51;;;;;;;5.90;2.20;;;;;;;19.06;57.92;92966.09;5002826;28;20042;-90
2021/06/08 12:45:45;;;;;;;5.28;2.60;;;;;;;18.36;63.80;92960.53;4932857;29;20058;-91
2021/06/08 12:48:45;;;;;;;10.65;2.75;;;;;;;18.21;65.06;92972.47;4898958;29;20073;-89
2021/06/08 12:52:35;;;;;;;5.40;2.70;;;;;;;17.94;66.51;92945.34;4938486;29;20217;-91
2021/06/08 12:55:14;;;;;;;7.50;2.90;;;;;;;17.87;67.78;92947.75;4917793;28;20045;-89
2021/06/08 12:58:08;;;;;;;;;;;;;;;;;;;;;
2021/06/08 13:01:41;;;;;;;;;;;;;;;;;;;;;
2021/06/08 13:11:52;;;;;;;;;;;;;;;;;;;;;
2021/06/08 13:15:11;;;;;;;9.25;2.80;;;;;;;18.24;70.41;92971.84;5008236;28;20041;-89
2021/06/08 13:18:30;;;;;;;5.88;2.30;;;;;;;18.12;70.17;92932.78;4995774;28;20137;-89
2021/06/08 13:29:02;;;;;;;;;;;;;;;;;;;;;
2021/06/08 13:32:31;;;;;;;5.88;2.60;;;;;;;18.75;71.20;92959.28;5009453;28;20466;-90
2021/06/08 13:35:22;;;;;;;6.85;2.33;;;;;;;19.06;69.48;92974.03;4954285;28;20061;-89
2021/06/08 13:41:44;;;;;;;6.45;2.47;;;;;;;19.00;69.87;92924.94;5008079;28;20046;-89
2021/06/08 13:45:30;;;;;;;;;;;;;;;;;;;;;
2021/06/08 13:48:48;;;;;;;;;;;;;;;;;;;;;
2021/06/08 13:55:06;;;;;;;;;;;;;;;;;;;;;
2021/06/08 14:01:39;;;;;;;4.00;2.42;;;;;;;20.93;55.67;92930.06;4999375;28;20475;-89
2021/06/08 14:04:52;;;;;;;4.40;2.38;;;;;;;21.08;55.92;92976.47;4989350;28;20057;-91
2021/06/08 14:08:30;;;;;;;;;;;;;;;;;;;;;
2021/06/08 14:11:39;;;;;;;3.15;1.90;;;;;;;21.58;53.04;92930.59;4990273;28;20146;-89
2021/06/08 14:19:08;;;;;;;2.85;1.80;;;;;;;23.06;45.97;92927.31;4929039;28;20085;-90
2021/06/08 14:22:12;;;;;;;;;;;;;;;;;;;;;
2021/06/08 14:28:20;;;;;;;6.90;2.80;;;;;;;21.77;57.32;92937.91;4979493;28;20077;-92
2021/06/08 14:35:38;;;;;;;4.93;2.60;;;;;;;20.50;59.04;92923.53;4989509;28;20042;-91
2021/06/08 14:38:37;;;;;;;5.28;2.55;;;;;;;20.20;58.49;92910.53;4993141;28;20046;-90
2021/06/08 14:41:42;;;;;;;6.07;2.60;;;;;;;20.25;58.90;92898.91;4979097;28;20050;-90
2021/06/08 14:44:42;;;;;;;4.72;2.75;;;;;;;20.66;57.72;92956.31;4990103;28;20061;-90
2021/06/08 14:51:10;;;;;;;;;;;;;;;;;;;;;
2021/06/08 14:54:31;;;;;;;5.57;2.95;;;;;;;20.56;56.27;92896.41;4991113;28;20453;-89
2021/06/08 14:57:23;;;;;;;;;;;;;;;;;;;;;
2021/06/08 15:03:29;;;;;;;4.47;2.53;;;;;;;21.00;55.98;92933.66;4975654;28;20109;-90
2021/06/08 15:06:18;;;;;;;4.63;2.58;;;;;;;20.59;55.76;92879.75;4968593;28;20029;-89
2021/06/08 15:09:12;;;;;;;5.93;2.78;;;;;;;20.66;56.53;92928.94;4983884;28;20065;-88
2021/06/08 15:12:10;;;;;;;5.20;2.67;;;;;;;20.68;56.31;92916.06;4977454;28;20507;-88
2021/06/08 15:15:08;;;;;;;4.10;2.50;;;;;;;20.22;58.30;92873.78;4983946;28;20345;-89
2021/06/08 15:18:05;;;;;;;6.45;2.40;;;;;;;20.37;56.80;92882.91;4995192;28;20503;-89
2021/06/08 15:23:34;;;;;;;7.90;2.30;;;;;;;20.26;53.55;92864.00;5003913;28;20042;-89
2021/06/08 15:26:10;;;;;;;4.63;2.10;;;;;;;20.67;52.47;92887.91;4991907;28;20121;-89
2021/06/08 15:29:04;;;;;;;;;;;;;;;;;;;;;
2021/06/08 15:32:04;;;;;;;7.78;2.40;;;;;;;19.98;59.27;92909.13;5001739;28;20045;-90
2021/06/08 15:35:09;;;;;;;;;;;;;;;;;;;;;
2021/06/08 15:38:12;;;;;;;;;;;;;;;;;;;;;
2021/06/08 15:41:38;;;;;;;5.32;2.10;;;;;;;19.10;59.09;92866.16;4989853;28;20035;-89
2021/06/08 15:44:19;;;;;;;3.65;2.20;;;;;;;19.77;58.33;92903.94;4984622;28;20049;-89
2021/06/08 15:50:06;;;;;;;4.38;2.30;;;;;;;19.76;55.62;92900.50;5013704;28;20092;-89
2021/06/08 15:52:42;;;;;;;4.45;2.20;;;;;;;19.81;56.93;92864.97;4979854;28;20375;-89
2021/06/08 15:55:37;;;;;;;6.43;2.58;;;;;;;20.03;58.35;92863.72;4986743;28;20545;-90
2021/06/08 15:58:44;;;;;;;;;;;;;;;;;;;;;
2021/06/08 16:01:39;;;;;;;7.93;3.08;;;;;;;20.18;63.62;92860.38;5001274;28;20037;-91
2021/06/08 16:11:16;;;;;;;6.75;3.00;;;;;;;20.48;63.68;92912.47;4975636;28;20030;-91
2021/06/08 16:18:00;;;;;;;7.32;3.30;;;;;;;20.26;62.44;92889.81;4997382;28;20054;-92
2021/06/08 16:28:54;;;;;;;;;;;;;;;;;;;;;
2021/06/08 16:32:38;;;;;;;8.88;3.22;;;;;;;20.10;64.10;92929.59;4939457;29;20039;-92
2021/06/08 16:39:46;;;;;;;;;;;;;;;;;;;;;
2021/06/08 16:57:40;;;;;;;8.90;3.50;;;;;;;20.06;67.20;92926.03;4853003;29;20049;-92
2021/06/08 17:01:25;;;;;;;;;;;;;;;;;;;;;
2021/06/08 17:08:14;;;;;;;6.40;3.05;;;;;;;19.86;66.45;92930.38;4956975;28;20248;-92
2021/06/08 17:14:45;;;;;;;5.00;3.22;;;;;;;19.55;65.18;92889.19;4954768;28;20043;-93
2021/06/08 17:21:18;;;;;;;6.70;3.47;;;;;;;19.54;64.24;92903.56;4893870;28;20047;-93
2021/06/08 17:24:31;;;;;;;;;;;;;;;;;;;;;
2021/06/08 17:27:44;;;;;;;;;;;;;;;;;;;;;
2021/06/08 17:30:40;;;;;;;5.63;3.33;;;;;;;19.45;64.59;92902.91;4978367;28;20038;-91
2021/06/08 17:33:22;;;;;;;11.82;3.40;;;;;;;19.60;65.24;92939.41;4982862;28;20100;-91
2021/06/08 17:36:22;;;;;;;;;;;;;;;;;;;;;
2021/06/08 17:39:45;;;;;;;;;;;;;;;;;;;;;
2021/06/08 17:42:29;;;;;;;6.60;3.40;;;;;;;19.15;63.43;92929.63;4979314;28;20038;-90
2021/06/08 17:49:15;;;;;;;;;;;;;;;;;;;;;
2021/06/08 17:59:05;;;;;;;8.77;2.90;;;;;;;18.66;69.00;92898.38;4980431;28;20043;-90
2021/06/08 18:02:10;;;;;;;10.50;3.25;;;;;;;18.66;68.85;92887.00;4972615;28;20053;-91
2021/06/08 18:16:08;;;;;;;;;;;;;;;;;;;;;
2021/06/08 18:19:57;;;;;;;6.57;3.10;;;;;;;18.50;67.35;92947.81;4933513;29;20051;-92
2021/06/08 18:23:28;;;;;;;;;;;;;;;;;;;;;
2021/06/08 18:27:04;;;;;;;5.65;3.05;;;;;;;18.06;68.88;92903.06;4904037;29;20115;-89
2021/06/08 18:30:27;;;;;;;;;;;;;;;;;;;;;
2021/06/08 18:33:56;;;;;;;6.35;3.20;;;;;;;17.83;69.74;92909.75;4891587;29;20060;-90
2021/06/08 18:37:35;;;;;;;;;;;;;;;;;;;;;
2021/06/08 18:40:42;;;;;;;;;;;;;;;;;;;;;
2021/06/08 18:43:36;;;;;;;;;;;;;;;;;;;;;
2021/06/08 18:46:21;;;;;;;6.07;3.20;;;;;;;17.41;70.30;92891.09;4970809;28;20947;-89
2021/06/08 18:49:37;;;;;;;;;;;;;;;;;;;;;
2021/06/08 18:52:22;;;;;;;6.40;3.03;;;;;;;17.14;69.79;92890.44;5006278;28;20034;-83
2021/06/08 18:55:00;;;;;;;8.18;2.83;;;;;;;17.07;69.61;92906.00;4989422;28;20068;-86
2021/06/08 18:57:26;;;;;;;4.53;2.60;;;;;;;17.08;69.52;92923.41;4994645;28;20458;-82
2021/06/08 19:00:57;;;;;;;;;;;;;;;;;;;;;
2021/06/08 19:04:28;;;;;;;;;;;;;;;;;;;;;
2021/06/08 19:07:08;;;;;;;6.63;2.63;;;;;;;16.67;70.96;92924.72;4992390;28;20108;-91
2021/06/08 19:10:31;;;;;;;7.45;2.90;;;;;;;16.50;70.73;92919.44;4981676;28;20049;-91
2021/06/08 19:17:20;;;;;;;4.90;2.72;;;;;;;16.52;71.09;92967.47;4916505;29;20513;-90
2021/06/08 19:20:32;;;;;;;6.18;2.45;;;;;;;16.17;71.12;92931.25;4879702;29;20040;-92
2021/06/08 19:23:40;;;;;;;7.00;2.70;;;;;;;16.28;71.18;92952.88;4894356;29;20134;-92
2021/06/08 19:27:16;;;;;;;6.80;2.65;;;;;;;16.10;71.15;92938.06;4825570;29;20596;-91
2021/06/08 19:30:46;;;;;;;;;;;;;;;;;;;;;
2021/06/08 19:34:15;;;;;;;;;;;;;;;;;;;;;
2021/06/08 19:37:29;;;;;;;8.18;2.40;;;;;;;16.02;69.83;92958.88;4864001;29;20055;-91
2021/06/08 19:41:06;;;;;;;5.32;2.53;;;;;;;15.94;71.55;92949.09;4860015;29;20057;-93
2021/06/08 19:51:42;;;;;;;4.75;2.70;;;;;;;15.65;71.50;92943.53;4858638;29;20125;-91
2021/06/08 19:55:27;;;;;;;;;;;;;;;;;;;;;
2021/06/08 19:58:37;;;;;;;;;;;;;;;;;;;;;
2021/06/08 20:01:59;;;;;;;;;;;;;;;;;;;;;
2021/06/08 20:09:21;;;;;;;4.55;2.30;;;;;;;15.91;71.85;92994.56;4924171;28;20047;-90
2021/06/08 20:16:19;;;;;;;;;;;;;;;;;;;;;
2021/06/08 20:19:31;;;;;;;6.03;2.80;;;;;;;15.74;72.68;92966.25;4998207;28;20038;-91
2021/06/08 20:26:29;;;;;;;6.55;2.67;;;;;;;16.01;72.69;92998.81;5006647;28;20066;-89
2021/06/08 20:29:50;;;;;;;7.43;2.60;;;;;;;15.97;73.19;93009.19;4991941;28;20038;-91
2021/06/08 20:36:25;;;;;;;;;;;;;;;;;;;;;
2021/06/08 20:40:11;;;;;;;;;;;;;;;;;;;;;
2021/06/08 20:43:15;;;;;;;;;;;;;;;;;;;;;
2021/06/08 20:46:37;;;;;;;5.32;2.03;;;;;;;15.55;69.89;92944.59;4993661;28;20404;-90
2021/06/08 20:50:02;;;;;;;7.20;2.38;;;;;;;15.62;69.42;92955.47;4965000;28;20051;-89
2021/06/08 20:53:07;;;;;;;;;;;;;;;;;;;;;
2021/06/08 20:59:37;;;;;;;6.28;2.38;;;;;;;15.75;70.95;92993.44;4989244;28;20446;-90
2021/06/08 21:03:09;;;;;;;;;;;;;;;;;;;;;
2021/06/08 21:06:18;;;;;;;4.68;2.20;;;;;;;15.51;68.52;92960.22;5019230;28;20049;-90
2021/06/08 21:09:35;;;;;;;;;;;;;;;;;;;;;
2021/06/08 21:12:24;;;;;;;;;;;;;;;;;;;;;
2021/06/08 21:15:38;;;;;;;4.70;1.88;;;;;;;15.36;69.24;92958.03;5017155;28;20071;-89
2021/06/08 21:18:40;;;;;;;4.28;2.05;;;;;;;15.67;69.50;93013.41;5030525;28;20034;-90
2021/06/08 21:22:17;;;;;;;3.10;1.90;;;;;;;15.56;69.69;92994.41;5017033;28;20377;-89
2021/06/08 21:28:44;;;;;;;4.85;1.80;;;;;;;15.28;68.83;92966.66;4997403;28;20042;-90
2021/06/08 21:31:34;;;;;;;;;;;;;;;;;;;;;
2021/06/08 21:34:40;;;;;;;7.32;1.95;;;;;;;15.56;69.54;93006.84;4993197;28;20046;-89
2021/06/08 21:37:33;;;;;;;;;;;;;;;;;;;;;
2021/06/08 21:40:44;;;;;;;;;;;;;;;;;;;;;
2021/06/08 21:47:59;;;;;;;4.80;1.88;;;;;;;15.15;70.04;92966.47;4982316;28;20058;-90
2021/06/08 21:54:24;;;;;;;5.93;2.25;;;;;;;15.49;69.94;93015.19;5010306;28;20376;-89
2021/06/08 21:57:21;;;;;;;6.65;2.00;;;;;;;15.06;70.30;92960.34;5004662;28;20097;-90
2021/06/08 22:00:57;;;;;;;4.78;2.10;;;;;;;15.15;70.42;92969.09;5004441;28;20054;-90
2021/06/08 22:04:02;;;;;;;6.35;2.22;;;;;;;15.15;70.67;92966.47;4976085;28;20046;-91
2021/06/08 22:07:38;;;;;;;9.80;2.17;;;;;;;15.52;70.67;93013.81;5001627;28;20416;-90
2021/06/08 22:10:20;;;;;;;4.03;2.10;;;;;;;15.38;70.46;92998.06;5001532;28;20506;-90
2021/06/08 22:13:13;;;;;;;4.13;2.22;;;;;;;15.29;71.58;92984.03;5000149;28;20030;-91
2021/06/08 22:16:27;;;;;;;6.57;2.40;;;;;;;15.18;71.63;92976.38;4992052;28;20148;-90
2021/06/08 22:23:04;;;;;;;;;;;;;;;;;;;;;
2021/06/08 22:29:57;;;;;;;;;;;;;;;;;;;;;
2021/06/08 22:32:58;;;;;;;5.60;2.63;;;;;;;15.07;72.43;92959.28;4994648;28;20487;-90
2021/06/08 22:36:12;;;;;;;3.92;2.22;;;;;;;15.12;72.31;92969.69;4989159;28;20050;-89
2021/06/08 22:39:23;;;;;;;;;;;;;;;;;;;;;
2021/06/08 22:42:33;;;;;;;4.00;2.47;;;;;;;14.97;73.38;92970.06;5000341;28;20034;-89
2021/06/08 22:45:35;;;;;;;;;;;;;;;;;;;;;
2021/06/08 22:48:38;;;;;;;5.97;2.47;;;;;;;14.93;73.58;92961.22;4992328;28;20177;-90
2021/06/08 22:51:40;;;;;;;4.90;2.63;;;;;;;15.29;73.12;93018.31;4955649;28;20212;-90
2021/06/08 22:55:02;;;;;;;5.35;2.65;;;;;;;15.27;72.90;93012.59;4980075;28;20038;-90
2021/06/08 22:58:30;;;;;;;;;;;;;;;;;;;;;
2021/06/08 23:01:57;;;;;;;;;;;;;;;;;;;;;
2021/06/08 23:05:42;;;;;;;;;;;;;;;;;;;;;
2021/06/08 23:09:28;;;;;;;;;;;;;;;;;;;;;
2021/06/08 23:12:57;;;;;;;;;;;;;;;;;;;;;
2021/06/08 23:16:13;;;;;;;3.53;2.20;;;;;;;15.28;73.11;93001.72;5006202;28;20102;-90
2021/06/08 23:19:22;;;;;;;4.15;2.50;;;;;;;15.17;73.24;92976.69;5000296;28;20036;-91
2021/06/08 23:22:44;;;;;;;4.65;2.80;;;;;;;14.80;73.59;92923.28;5015427;28;20042;-89
2021/06/08 23:26:14;;;;;;;5.63;2.42;;;;;;;14.84;73.30;92926.88;4967690;28;20074;-89
2021/06/08 23:36:03;;;;;;;4.80;2.95;;;;;;;15.15;73.24;92968.28;4989070;28;20065;-90
2021/06/08 23:39:05;;;;;;;7.90;2.75;;;;;;;14.97;73.45;92938.41;4996946;28;20043;-89
2021/06/08 23:41:51;;;;;;;;;;;;;;;15.21;73.65;92975.00;4994755;28;20119;-89
2021/06/08 23:44:46;;;;;;;5.03;2.42;;;;;;;14.78;72.98;92913.03;4997480;28;19914;-89
2021/06/08 23:50:43;;;;;;;4.93;2.50;;;;;;;14.78;73.69;92920.94;5004307;28;20033;-89
2021/06/08 23:56:47;;;;;;;;;;;;;;;;;;;;;
2021/06/08 23:59:55;;;;;;;5.55;2.47;;;;;;;14.77;73.45;92942.31;4984105;28;20144;-89
